Time;durP1;ratioP1;P1;durP2;ratioP2;P2;SDS_P1;SDS_P2;PMS_P1;PMS_P2;Temp;Humidity;BMP_temperature;BMP_pressure;BME280_temperature;BME280_humidity;BME280_pressure;Samples;Min_cycle;Max_cycle;Signal;HPM_P1;HPM_P2
2023/11/29 00:01:53;;;;;;;16.50;8.37;;;-0.80;99.90;;;;;;5064672;28;20579;-58
2023/11/29 00:04:18;;;;;;;15.40;8.77;;;-0.80;99.90;;;;;;5062984;28;20179;-58
2023/11/29 00:06:44;;;;;;;15.43;7.93;;;-0.90;99.90;;;;;;5062815;28;20234;-59
2023/11/29 00:09:10;;;;;;;11.83;6.87;;;-0.90;99.90;;;;;;5050885;28;20707;-59
2023/11/29 00:11:35;;;;;;;12.90;7.30;;;-0.90;99.90;;;;;;5058467;28;20253;-58
2023/11/29 00:14:01;;;;;;;13.17;7.40;;;-1.00;99.90;;;;;;5060973;28;20430;-58
2023/11/29 00:16:27;;;;;;;11.90;7.33;;;-1.00;99.90;;;;;;5060962;28;20204;-58
2023/11/29 00:18:52;;;;;;;15.03;8.07;;;-1.10;99.90;;;;;;5067319;28;20237;-59
2023/11/29 00:21:18;;;;;;;17.60;8.23;;;-1.10;99.90;;;;;;5060676;28;20215;-58
2023/11/29 00:23:44;;;;;;;18.57;8.90;;;-1.10;99.90;;;;;;5062356;28;20162;-59
2023/11/29 00:26:10;;;;;;;19.10;10.07;;;-1.10;99.90;;;;;;5066643;28;20221;-59
2023/11/29 00:28:35;;;;;;;13.27;8.30;;;-1.10;99.90;;;;;;5061710;28;20412;-58
2023/11/29 00:31:01;;;;;;;18.00;9.63;;;-1.10;99.90;;;;;;5056537;28;20225;-58
2023/11/29 00:33:26;;;;;;;15.20;8.90;;;-1.20;99.90;;;;;;5060364;28;20168;-58
2023/11/29 00:35:54;;;;;;;17.67;9.20;;;-1.20;99.90;;;;;;5056373;28;20184;-59
2023/11/29 00:38:19;;;;;;;16.87;8.70;;;-1.20;99.90;;;;;;5064739;28;20274;-58
2023/11/29 00:40:45;;;;;;;15.70;8.50;;;-1.20;99.90;;;;;;5064186;28;20526;-59
2023/11/29 00:43:11;;;;;;;17.37;8.63;;;-1.20;99.90;;;;;;5063283;28;20238;-58
2023/11/29 00:45:36;;;;;;;14.43;8.20;;;-1.20;99.90;;;;;;5066994;28;20409;-58
2023/11/29 00:48:02;;;;;;;14.13;8.50;;;-1.20;99.90;;;;;;5062879;28;20672;-58
2023/11/29 00:50:28;;;;;;;16.70;9.30;;;-1.20;99.90;;;;;;5063162;28;20208;-59
2023/11/29 00:52:53;;;;;;;14.03;8.50;;;-1.20;99.90;;;;;;5066914;28;20204;-59
2023/11/29 00:55:19;;;;;;;15.80;8.60;;;-1.20;99.90;;;;;;5062541;28;20174;-58
2023/11/29 00:57:45;;;;;;;17.17;9.00;;;-1.20;99.90;;;;;;5054515;28;20266;-59
2023/11/29 01:00:11;;;;;;;17.03;8.53;;;-1.20;99.90;;;;;;5063385;28;20168;-59
2023/11/29 01:02:37;;;;;;;16.20;8.50;;;-1.10;99.90;;;;;;5064304;28;20215;-59
2023/11/29 01:05:02;;;;;;;21.03;9.77;;;-1.10;99.90;;;;;;5060495;28;20473;-58
2023/11/29 01:07:28;;;;;;;17.13;9.00;;;-1.20;99.90;;;;;;5063200;28;20185;-59
2023/11/29 01:09:54;;;;;;;16.00;9.00;;;-1.20;99.90;;;;;;5064447;28;20188;-59
2023/11/29 01:12:19;;;;;;;18.67;9.47;;;-1.20;99.90;;;;;;5064623;28;20718;-60
2023/11/29 01:14:45;;;;;;;19.10;8.87;;;-1.20;99.90;;;;;;5066310;28;20173;-59
2023/11/29 01:17:10;;;;;;;16.77;9.20;;;-1.20;99.90;;;;;;5067237;28;20180;-59
2023/11/29 01:19:36;;;;;;;15.70;8.43;;;-1.20;99.90;;;;;;5065559;28;20331;-59
2023/11/29 01:22:01;;;;;;;15.93;8.50;;;-1.20;99.90;;;;;;5065204;28;20752;-58
2023/11/29 01:24:27;;;;;;;13.53;7.50;;;-1.20;99.90;;;;;;5064184;28;20173;-58
2023/11/29 01:26:53;;;;;;;16.80;8.50;;;-1.20;99.90;;;;;;5067102;28;20168;-59
2023/11/29 01:29:18;;;;;;;15.40;8.30;;;-1.20;99.90;;;;;;5068894;28;20406;-59
2023/11/29 01:31:44;;;;;;;13.80;7.43;;;-1.20;99.90;;;;;;5067574;28;20789;-59
2023/11/29 01:34:10;;;;;;;16.00;8.30;;;-1.30;99.90;;;;;;5066310;28;20176;-58
2023/11/29 01:36:40;;;;;;;18.67;9.10;;;-1.30;99.90;;;;;;5061517;28;20187;-59
2023/11/29 01:39:06;;;;;;;17.77;9.13;;;-1.40;99.90;;;;;;5062056;28;20196;-59
2023/11/29 01:41:32;;;;;;;17.40;8.70;;;-1.40;99.90;;;;;;5058150;28;20451;-59
2023/11/29 01:43:57;;;;;;;13.40;7.60;;;-1.40;99.90;;;;;;5067538;28;20437;-58
2023/11/29 01:46:23;;;;;;;14.00;8.13;;;-1.50;99.90;;;;;;5068485;28;20175;-58
2023/11/29 01:48:49;;;;;;;16.30;8.03;;;-1.50;99.90;;;;;;5067345;28;20320;-57
2023/11/29 01:51:15;;;;;;;11.70;7.33;;;-1.50;99.90;;;;;;5060324;28;20249;-58
2023/11/29 01:53:41;;;;;;;15.07;8.10;;;-1.60;99.90;;;;;;5068619;28;20426;-57
2023/11/29 01:56:07;;;;;;;18.97;9.60;;;-1.60;99.90;;;;;;5062598;28;20184;-59
2023/11/29 01:58:32;;;;;;;14.80;8.87;;;-1.50;99.90;;;;;;5065036;28;20561;-58
2023/11/29 02:00:59;;;;;;;15.17;9.00;;;-1.50;99.90;;;;;;5063648;28;20429;-58
2023/11/29 02:03:24;;;;;;;17.13;9.30;;;-1.60;99.90;;;;;;5065001;28;20744;-58
2023/11/29 02:05:51;;;;;;;15.43;9.20;;;-1.50;99.90;;;;;;5067425;28;20426;-58
2023/11/29 02:08:17;;;;;;;23.70;8.97;;;-1.50;99.90;;;;;;5065401;28;20187;-57
2023/11/29 02:10:43;;;;;;;17.50;9.43;;;-1.50;99.90;;;;;;5060209;28;21021;-58
2023/11/29 02:13:09;;;;;;;26.20;13.43;;;-1.50;99.90;;;;;;5066199;28;20430;-57
2023/11/29 02:15:35;;;;;;;17.40;9.47;;;-1.50;99.90;;;;;;5067168;28;20476;-58
2023/11/29 02:18:00;;;;;;;12.67;7.43;;;-1.60;99.90;;;;;;5067047;28;20208;-58
2023/11/29 02:20:26;;;;;;;15.77;8.37;;;-1.50;99.90;;;;;;5063795;28;20276;-58
2023/11/29 02:23:11;;;;;;;13.90;7.70;;;-1.60;99.90;;;;;;5062276;28;20223;-58
2023/11/29 02:25:37;;;;;;;13.23;7.50;;;-1.60;99.90;;;;;;5060177;28;20421;-58
2023/11/29 02:28:02;;;;;;;14.20;6.97;;;-1.60;99.90;;;;;;5065065;28;20441;-57
2023/11/29 02:30:28;;;;;;;10.10;6.30;;;-1.60;99.90;;;;;;5066970;28;20179;-58
2023/11/29 02:32:54;;;;;;;19.43;6.60;;;-1.60;99.90;;;;;;5067221;28;21955;-58
2023/11/29 02:35:19;;;;;;;10.60;5.87;;;-1.60;99.90;;;;;;5062081;28;20180;-58
2023/11/29 02:37:45;;;;;;;10.33;5.80;;;-1.60;99.90;;;;;;5065729;28;20221;-59
2023/11/29 02:40:11;;;;;;;8.70;4.67;;;-1.60;99.90;;;;;;5067732;28;20196;-59
2023/11/29 02:42:36;;;;;;;8.07;5.20;;;-1.60;99.90;;;;;;5060529;28;20208;-59
2023/11/29 02:45:02;;;;;;;10.10;5.80;;;-1.50;99.90;;;;;;5062682;28;20491;-59
2023/11/29 02:47:28;;;;;;;12.80;5.77;;;-1.60;99.90;;;;;;5067923;28;20181;-58
2023/11/29 02:49:53;;;;;;;8.63;5.37;;;-1.50;99.90;;;;;;5063789;28;20210;-57
2023/11/29 02:52:19;;;;;;;8.10;4.93;;;-1.60;99.90;;;;;;5062416;28;20604;-58
2023/11/29 02:54:44;;;;;;;13.50;7.23;;;-1.60;99.90;;;;;;5067802;28;20176;-59
2023/11/29 02:57:10;;;;;;;12.33;6.40;;;-1.60;99.90;;;;;;5060101;28;20180;-59
2023/11/29 02:59:35;;;;;;;12.73;7.07;;;-1.70;99.90;;;;;;5065079;28;20196;-59
2023/11/29 03:02:01;;;;;;;14.07;7.97;;;-1.70;99.90;;;;;;5065322;28;20279;-58
2023/11/29 03:04:27;;;;;;;13.50;7.60;;;-1.80;99.90;;;;;;5061927;28;20200;-58
2023/11/29 03:06:52;;;;;;;11.10;6.60;;;-1.80;99.90;;;;;;5065894;28;20194;-59
2023/11/29 03:09:18;;;;;;;14.47;6.53;;;-1.80;99.90;;;;;;5063291;28;20253;-59
2023/11/29 03:11:43;;;;;;;8.67;5.50;;;-1.90;99.90;;;;;;5061607;28;20204;-59
2023/11/29 03:14:09;;;;;;;10.10;5.47;;;-1.90;99.90;;;;;;5066732;28;20684;-59
2023/11/29 03:16:34;;;;;;;7.60;4.70;;;-1.90;99.90;;;;;;5062045;28;20196;-58
2023/11/29 03:19:00;;;;;;;7.87;4.80;;;-2.00;99.90;;;;;;5062888;28;20208;-59
2023/11/29 03:21:26;;;;;;;6.87;4.70;;;-2.00;99.90;;;;;;5065046;28;20224;-58
2023/11/29 03:23:52;;;;;;;7.30;5.00;;;-2.00;99.90;;;;;;5067898;28;20211;-59
2023/11/29 03:26:18;;;;;;;8.93;4.93;;;-2.00;99.90;;;;;;5062521;28;20466;-58
2023/11/29 03:28:43;;;;;;;6.20;4.50;;;-2.00;99.90;;;;;;5058086;28;20415;-59
2023/11/29 03:31:09;;;;;;;9.13;5.30;;;-2.00;99.90;;;;;;5057722;28;20641;-59
2023/11/29 03:33:34;;;;;;;10.03;5.50;;;-2.00;99.90;;;;;;5066630;28;20184;-58
2023/11/29 03:36:00;;;;;;;9.03;5.87;;;-1.90;99.90;;;;;;5062437;28;20188;-59
2023/11/29 03:38:26;;;;;;;7.70;5.10;;;-1.90;99.90;;;;;;5060666;28;20209;-59
2023/11/29 03:40:51;;;;;;;10.53;6.17;;;-1.90;99.90;;;;;;5062435;28;20195;-58
2023/11/29 03:43:17;;;;;;;9.27;5.63;;;-1.90;99.90;;;;;;5064430;28;20195;-59
2023/11/29 03:45:42;;;;;;;6.73;4.33;;;-1.90;99.90;;;;;;5062174;28;20168;-59
2023/11/29 03:48:08;;;;;;;6.93;4.70;;;-1.90;99.90;;;;;;5065143;28;20176;-59
2023/11/29 03:50:34;;;;;;;7.73;5.03;;;-1.90;99.90;;;;;;5061680;28;20187;-59
2023/11/29 03:52:59;;;;;;;7.07;5.10;;;-1.90;99.90;;;;;;5061038;28;20611;-58
2023/11/29 03:55:25;;;;;;;7.13;4.63;;;-1.90;99.90;;;;;;5060650;28;20191;-58
2023/11/29 03:57:50;;;;;;;7.40;4.97;;;-1.90;99.90;;;;;;5063053;28;20548;-59
2023/11/29 04:00:16;;;;;;;5.83;4.27;;;-1.90;99.90;;;;;;5064234;28;20558;-58
2023/11/29 04:02:42;;;;;;;9.47;4.43;;;-1.90;99.90;;;;;;5058356;28;20200;-59
2023/11/29 04:05:08;;;;;;;8.27;5.33;;;-1.90;99.90;;;;;;5061845;28;20423;-59
2023/11/29 04:07:33;;;;;;;9.93;6.10;;;-2.00;99.90;;;;;;5057997;28;20181;-58
2023/11/29 04:09:59;;;;;;;8.70;5.20;;;-2.00;99.90;;;;;;5063963;28;20172;-57
2023/11/29 04:12:25;;;;;;;10.53;6.37;;;-2.00;99.90;;;;;;5063843;28;20200;-58
2023/11/29 04:14:51;;;;;;;10.27;5.40;;;-2.10;99.90;;;;;;5067278;28;20192;-58
2023/11/29 04:17:17;;;;;;;10.73;6.77;;;-2.10;99.90;;;;;;5063826;28;20475;-58
2023/11/29 04:19:42;;;;;;;11.13;6.50;;;-2.10;99.90;;;;;;5061907;28;20552;-59
2023/11/29 04:22:08;;;;;;;8.20;5.10;;;-2.10;99.90;;;;;;5061967;28;20675;-58
2023/11/29 04:24:34;;;;;;;10.63;5.83;;;-2.20;99.90;;;;;;5059818;28;20218;-59
2023/11/29 04:26:59;;;;;;;8.47;5.43;;;-2.20;99.90;;;;;;5060442;28;20193;-56
2023/11/29 04:29:25;;;;;;;10.87;5.77;;;-2.20;99.90;;;;;;5063819;28;20181;-59
2023/11/29 04:31:50;;;;;;;9.87;5.70;;;-2.30;99.90;;;;;;5060668;28;20252;-58
2023/11/29 04:34:16;;;;;;;8.80;5.60;;;-2.30;99.90;;;;;;5063069;28;20709;-57
2023/11/29 04:36:42;;;;;;;9.97;5.70;;;-2.30;99.90;;;;;;5062770;28;20187;-58
2023/11/29 04:39:12;;;;;;;8.80;5.00;;;-2.40;99.90;;;;;;5061473;28;20195;-59
2023/11/29 04:41:39;;;;;;;8.40;5.20;;;-2.40;99.90;;;;;;5059303;28;20716;-58
2023/11/29 04:44:06;;;;;;;7.80;4.33;;;-2.40;99.90;;;;;;5065959;28;21442;-57
2023/11/29 04:46:31;;;;;;;6.80;4.20;;;-2.40;99.90;;;;;;5062704;28;20548;-58
2023/11/29 04:48:57;;;;;;;8.87;5.27;;;-2.40;99.90;;;;;;5063666;28;20600;-58
2023/11/29 04:51:23;;;;;;;7.53;4.70;;;-2.40;99.90;;;;;;5068303;28;20224;-58
2023/11/29 04:53:48;;;;;;;7.63;5.00;;;-2.40;99.90;;;;;;5066508;28;20243;-58
2023/11/29 04:56:14;;;;;;;6.70;4.27;;;-2.40;99.90;;;;;;5057648;28;20174;-60
2023/11/29 04:58:40;;;;;;;10.20;5.80;;;-2.40;99.90;;;;;;5057458;28;20190;-57
2023/11/29 05:01:10;;;;;;;9.60;5.30;;;-2.40;99.90;;;;;;5057346;28;20302;-57
2023/11/29 05:03:39;;;;;;;7.97;5.20;;;-2.40;99.90;;;;;;5058550;28;20809;-58
2023/11/29 05:06:06;;;;;;;8.03;5.13;;;-2.50;99.90;;;;;;5063889;28;20448;-61
2023/11/29 05:08:32;;;;;;;7.13;5.10;;;-2.50;99.90;;;;;;5062473;28;20462;-61
2023/11/29 05:11:04;;;;;;;13.03;4.80;;;-2.50;99.90;;;;;;5065224;28;20437;-62
2023/11/29 05:13:33;;;;;;;9.13;5.47;;;-2.50;99.90;;;;;;5062538;28;20207;-60
2023/11/29 05:16:00;;;;;;;9.10;5.43;;;-2.50;99.90;;;;;;5063360;28;20509;-61
2023/11/29 05:18:26;;;;;;;10.13;5.67;;;-2.50;99.90;;;;;;5066424;28;20668;-62
2023/11/29 05:20:52;;;;;;;11.50;5.70;;;-2.50;99.90;;;;;;5063377;28;20418;-61
2023/11/29 05:23:18;;;;;;;12.80;6.00;;;-2.50;99.90;;;;;;5065656;28;20444;-60
2023/11/29 05:25:43;;;;;;;10.80;6.30;;;-2.50;99.90;;;;;;5064681;28;20177;-61
2023/11/29 05:28:09;;;;;;;9.10;6.20;;;-2.60;99.90;;;;;;5061999;28;20567;-61
2023/11/29 05:30:35;;;;;;;7.13;5.23;;;-2.60;99.90;;;;;;5067404;28;20175;-60
2023/11/29 05:33:03;;;;;;;8.40;5.97;;;-2.60;99.90;;;;;;5064729;28;20188;-60
2023/11/29 05:35:30;;;;;;;11.93;6.20;;;-2.50;99.90;;;;;;5062343;28;20422;-61
2023/11/29 05:37:56;;;;;;;18.73;8.13;;;-2.50;99.90;;;;;;5067586;28;20426;-60
2023/11/29 05:40:21;;;;;;;10.80;5.87;;;-2.40;99.90;;;;;;5056252;28;20491;-60
2023/11/29 05:42:47;;;;;;;12.10;6.10;;;-2.40;99.90;;;;;;5062928;28;20713;-60
2023/11/29 05:45:13;;;;;;;7.50;4.60;;;-2.40;99.90;;;;;;5062190;28;20234;-60
2023/11/29 05:47:39;;;;;;;6.40;4.90;;;-2.40;99.90;;;;;;5062769;28;20179;-60
2023/11/29 05:50:05;;;;;;;9.43;5.73;;;-2.40;99.90;;;;;;5063244;28;20227;-58
2023/11/29 05:52:31;;;;;;;9.20;6.17;;;-2.40;99.90;;;;;;5062838;28;20442;-59
2023/11/29 05:54:56;;;;;;;8.30;6.30;;;-2.40;99.90;;;;;;5063269;28;21131;-61
2023/11/29 05:57:22;;;;;;;12.93;6.73;;;-2.40;99.90;;;;;;5059191;28;20180;-60
2023/11/29 05:59:48;;;;;;;10.23;6.23;;;-2.40;99.90;;;;;;5065539;28;20245;-60
2023/11/29 06:02:14;;;;;;;12.80;6.10;;;-2.40;99.90;;;;;;5059056;28;20591;-60
2023/11/29 06:04:40;;;;;;;9.60;5.50;;;-2.30;99.90;;;;;;5057303;28;20426;-60
2023/11/29 06:07:05;;;;;;;10.23;5.50;;;-2.30;99.90;;;;;;5066257;28;20418;-59
2023/11/29 06:09:31;;;;;;;8.90;5.23;;;-2.30;99.90;;;;;;5067337;28;20471;-59
2023/11/29 06:11:58;;;;;;;6.70;4.80;;;-2.30;99.90;;;;;;5066594;28;20192;-60
2023/11/29 06:14:24;;;;;;;8.63;5.20;;;-2.30;99.90;;;;;;5069687;28;20176;-60
2023/11/29 06:16:51;;;;;;;11.67;5.27;;;-2.30;99.90;;;;;;5065521;28;20512;-59
2023/11/29 06:19:16;;;;;;;11.80;5.60;;;-2.30;99.90;;;;;;5064446;28;20454;-60
2023/11/29 06:21:42;;;;;;;9.73;6.80;;;-2.30;99.90;;;;;;5061475;28;20540;-59
2023/11/29 06:24:10;;;;;;;15.13;6.00;;;-2.30;99.90;;;;;;5059240;28;20272;-60
2023/11/29 06:26:38;;;;;;;17.20;8.30;;;-2.20;99.90;;;;;;5056860;28;20810;-59
2023/11/29 06:29:04;;;;;;;10.93;7.40;;;-2.20;99.90;;;;;;5060563;28;20549;-59
2023/11/29 06:31:31;;;;;;;11.07;6.90;;;-2.30;99.90;;;;;;5058393;28;20967;-60
2023/11/29 06:33:57;;;;;;;7.93;6.10;;;-2.20;99.90;;;;;;5067625;28;20183;-60
2023/11/29 06:36:23;;;;;;;10.07;6.17;;;-2.20;99.90;;;;;;5060757;28;20431;-60
2023/11/29 06:38:48;;;;;;;12.73;8.37;;;-2.20;99.90;;;;;;5064012;28;20434;-59
2023/11/29 06:41:14;;;;;;;24.37;14.60;;;-2.20;99.90;;;;;;5064109;28;20179;-59
2023/11/29 06:43:40;;;;;;;14.77;8.57;;;-2.10;99.90;;;;;;5067863;28;20183;-58
2023/11/29 06:46:05;;;;;;;13.30;8.13;;;-2.20;99.90;;;;;;5064809;28;20218;-59
2023/11/29 06:48:34;;;;;;;8.33;5.80;;;-2.20;99.90;;;;;;5063115;28;20240;-59
2023/11/29 06:51:02;;;;;;;10.10;6.73;;;-2.20;99.90;;;;;;5063163;28;20172;-59
2023/11/29 06:53:28;;;;;;;11.17;6.63;;;-2.20;99.90;;;;;;5056463;28;20442;-59
2023/11/29 06:55:55;;;;;;;9.53;5.83;;;-2.20;99.90;;;;;;5062266;28;20426;-58
2023/11/29 06:58:20;;;;;;;7.93;5.60;;;-2.20;99.90;;;;;;5059216;28;20180;-57
2023/11/29 07:00:46;;;;;;;8.83;6.13;;;-2.20;99.90;;;;;;5060571;28;20992;-57
2023/11/29 07:03:13;;;;;;;7.40;5.33;;;-2.20;99.90;;;;;;5064975;28;20210;-58
2023/11/29 07:05:40;;;;;;;7.93;5.47;;;-2.20;99.90;;;;;;5066927;28;20654;-58
2023/11/29 07:08:06;;;;;;;9.03;6.20;;;-2.30;99.90;;;;;;5062219;28;20810;-58
2023/11/29 07:10:33;;;;;;;20.30;9.60;;;-2.30;99.90;;;;;;5063876;28;21020;-59
2023/11/29 07:12:59;;;;;;;11.97;6.60;;;-2.30;99.90;;;;;;5060760;28;20449;-59
2023/11/29 07:15:25;;;;;;;8.70;5.27;;;-2.30;99.90;;;;;;5061533;28;20427;-59
2023/11/29 07:17:51;;;;;;;10.27;6.60;;;-2.30;99.90;;;;;;5059832;28;20841;-59
2023/11/29 07:20:17;;;;;;;8.20;5.90;;;-2.20;99.90;;;;;;5057416;28;20190;-59
2023/11/29 07:22:43;;;;;;;9.60;5.27;;;-2.20;99.90;;;;;;5063470;28;21005;-59
2023/11/29 07:25:11;;;;;;;27.13;11.63;;;-2.20;99.90;;;;;;5066742;28;20505;-58
2023/11/29 07:27:37;;;;;;;14.37;7.57;;;-2.10;99.90;;;;;;5062188;28;20187;-59
2023/11/29 07:30:04;;;;;;;22.33;6.13;;;-2.10;99.90;;;;;;5065722;28;20991;-58
2023/11/29 07:32:30;;;;;;;10.57;6.10;;;-2.10;99.90;;;;;;5059834;28;20479;-59
2023/11/29 07:34:56;;;;;;;8.77;5.40;;;-2.10;99.90;;;;;;5062904;28;20446;-59
2023/11/29 07:37:21;;;;;;;8.97;5.60;;;-2.00;99.90;;;;;;5058344;28;20198;-59
2023/11/29 07:39:47;;;;;;;8.77;5.33;;;-2.10;99.90;;;;;;5066474;28;20188;-59
2023/11/29 07:42:14;;;;;;;11.40;5.47;;;-2.00;99.90;;;;;;5062411;28;20275;-59
2023/11/29 07:44:39;;;;;;;10.93;6.53;;;-2.00;99.90;;;;;;5059881;28;20430;-58
2023/11/29 07:47:05;;;;;;;13.30;6.23;;;-2.00;99.90;;;;;;5062897;28;20420;-60
2023/11/29 07:49:31;;;;;;;10.43;6.43;;;-1.90;99.90;;;;;;5067831;28;20216;-59
2023/11/29 07:51:57;;;;;;;9.70;5.90;;;-1.90;99.90;;;;;;5061111;28;20442;-59
2023/11/29 07:54:23;;;;;;;8.60;5.50;;;-1.80;99.90;;;;;;5063618;28;20581;-59
2023/11/29 07:56:48;;;;;;;9.17;5.67;;;-1.80;99.90;;;;;;5066171;28;20430;-60
2023/11/29 07:59:15;;;;;;;9.40;5.93;;;-1.70;99.90;;;;;;5061442;28;20176;-59
2023/11/29 08:01:41;;;;;;;10.23;5.83;;;-1.60;99.90;;;;;;5058187;28;20209;-59
2023/11/29 08:04:07;;;;;;;11.27;6.93;;;-1.60;99.90;;;;;;5063552;28;20462;-59
2023/11/29 08:06:33;;;;;;;10.63;6.20;;;-1.50;99.90;;;;;;5061290;28;20492;-58
2023/11/29 08:09:00;;;;;;;9.87;6.47;;;-1.50;99.90;;;;;;5058753;28;20574;-59
2023/11/29 08:11:26;;;;;;;13.23;6.93;;;-1.40;99.90;;;;;;5057544;28;20443;-60
2023/11/29 08:13:52;;;;;;;12.23;6.80;;;-1.40;99.90;;;;;;5061981;28;20426;-59
2023/11/29 08:16:17;;;;;;;10.60;6.60;;;-1.30;99.90;;;;;;5061079;28;21302;-59
2023/11/29 08:18:43;;;;;;;11.60;7.13;;;-1.20;99.90;;;;;;5062622;28;20267;-59
2023/11/29 08:21:09;;;;;;;11.00;6.30;;;-1.20;99.90;;;;;;5058065;28;20318;-59
2023/11/29 08:23:35;;;;;;;11.80;6.60;;;-1.10;99.90;;;;;;5065259;28;20177;-60
2023/11/29 08:26:01;;;;;;;12.47;6.60;;;-1.10;99.90;;;;;;5061543;28;20794;-58
2023/11/29 08:28:26;;;;;;;11.73;7.57;;;-1.00;99.90;;;;;;5061924;28;21033;-60
2023/11/29 08:30:52;;;;;;;22.10;8.17;;;-1.00;99.90;;;;;;5063313;28;20211;-59
2023/11/29 08:33:18;;;;;;;12.50;6.60;;;-1.00;99.90;;;;;;5065422;28;20695;-60
2023/11/29 08:35:44;;;;;;;10.00;5.93;;;-0.90;99.90;;;;;;5060420;28;20222;-59
2023/11/29 08:38:10;;;;;;;12.10;6.10;;;-0.90;99.90;;;;;;5066700;28;20196;-60
2023/11/29 08:40:35;;;;;;;9.17;5.63;;;-0.80;99.90;;;;;;5065466;28;21156;-60
2023/11/29 08:43:02;;;;;;;11.10;6.10;;;-0.70;99.90;;;;;;5063157;28;20220;-60
2023/11/29 08:45:27;;;;;;;10.90;5.70;;;-0.70;99.90;;;;;;5058811;28;20518;-59
2023/11/29 08:47:53;;;;;;;7.43;5.40;;;-0.60;99.90;;;;;;5060252;28;20514;-59
2023/11/29 08:50:19;;;;;;;7.90;5.47;;;-0.60;99.90;;;;;;5061700;28;20221;-59
2023/11/29 08:52:46;;;;;;;7.37;4.93;;;-0.50;99.90;;;;;;5061233;28;20197;-60
2023/11/29 08:55:11;;;;;;;9.20;5.90;;;-0.50;99.90;;;;;;5063509;28;20160;-58
2023/11/29 08:57:37;;;;;;;11.20;5.10;;;-0.50;99.90;;;;;;5062594;28;20986;-60
2023/11/29 09:00:07;;;;;;;7.30;4.77;;;-0.40;99.90;;;;;;5063063;28;20178;-58
2023/11/29 09:02:32;;;;;;;8.30;4.70;;;-0.30;99.90;;;;;;5057842;28;20993;-59
2023/11/29 09:04:58;;;;;;;10.10;5.37;;;-0.30;99.90;;;;;;5057649;28;20459;-59
2023/11/29 09:07:25;;;;;;;8.63;5.27;;;-0.20;99.90;;;;;;5063155;28;20188;-59
2023/11/29 09:09:51;;;;;;;7.80;5.47;;;-0.10;99.90;;;;;;5058512;28;20701;-60
2023/11/29 09:12:17;;;;;;;6.57;4.80;;;-0.10;99.90;;;;;;5060043;28;20435;-58
2023/11/29 09:14:43;;;;;;;6.60;4.97;;;0.00;99.90;;;;;;5063253;28;20872;-59
2023/11/29 09:17:09;;;;;;;8.23;5.33;;;0.00;99.90;;;;;;5057397;28;20440;-60
2023/11/29 09:19:35;;;;;;;7.37;4.87;;;0.10;99.90;;;;;;5061949;28;20520;-59
2023/11/29 09:22:05;;;;;;;5.90;4.77;;;0.10;99.90;;;;;;5060009;28;20541;-59
2023/11/29 09:24:30;;;;;;;6.83;4.73;;;0.20;99.90;;;;;;5058330;28;20181;-57
2023/11/29 09:26:56;;;;;;;5.70;4.70;;;0.30;99.90;;;;;;5055212;28;20427;-60
2023/11/29 09:29:28;;;;;;;7.50;5.40;;;0.30;99.90;;;;;;5057681;28;20220;-58
2023/11/29 09:31:54;;;;;;;7.50;5.50;;;0.40;99.90;;;;;;5056517;28;20200;-60
2023/11/29 09:34:24;;;;;;;6.77;4.80;;;0.40;99.90;;;;;;5064006;28;20845;-59
2023/11/29 09:36:50;;;;;;;7.03;5.13;;;0.40;99.90;;;;;;5059980;28;20412;-59
2023/11/29 09:39:17;;;;;;;6.43;4.80;;;0.50;99.90;;;;;;5059453;28;20434;-59
2023/11/29 09:41:46;;;;;;;6.13;4.30;;;0.50;99.90;;;;;;5059375;28;20489;-60
2023/11/29 09:44:15;;;;;;;8.83;5.47;;;0.50;99.90;;;;;;5060671;28;21087;-58
2023/11/29 09:46:42;;;;;;;6.60;4.50;;;0.60;99.90;;;;;;5064398;28;20431;-59
2023/11/29 09:49:08;;;;;;;5.23;4.07;;;0.70;99.90;;;;;;5057681;28;20455;-58
2023/11/29 09:51:34;;;;;;;5.93;4.77;;;0.70;99.90;;;;;;5059828;28;20825;-60
2023/11/29 09:53:59;;;;;;;7.47;4.70;;;0.90;99.90;;;;;;5056924;28;20474;-60
2023/11/29 09:56:27;;;;;;;7.07;4.43;;;1.00;99.90;;;;;;5059602;28;20173;-59
2023/11/29 09:58:53;;;;;;;7.37;4.50;;;1.10;99.90;;;;;;5064382;28;20226;-59
2023/11/29 10:01:18;;;;;;;8.00;5.00;;;1.30;99.90;;;;;;5058757;28;20419;-59
2023/11/29 10:04:00;;;;;;;6.83;4.80;;;1.40;99.90;;;;;;5054521;28;20174;-59
2023/11/29 10:06:25;;;;;;;5.37;4.13;;;1.50;99.90;;;;;;5059248;28;20173;-59
2023/11/29 10:08:51;;;;;;;5.40;3.80;;;1.60;99.40;;;;;;5055953;28;21204;-60
2023/11/29 10:11:16;;;;;;;7.37;4.90;;;1.60;99.20;;;;;;5059812;28;20205;-59
2023/11/29 10:13:42;;;;;;;7.17;5.07;;;1.50;97.40;;;;;;5057588;28;20175;-60
2023/11/29 10:16:08;;;;;;;6.20;4.53;;;1.50;99.90;;;;;;5059716;28;20193;-59
2023/11/29 10:18:33;;;;;;;8.37;4.63;;;1.50;96.60;;;;;;5062860;28;20589;-59
2023/11/29 10:20:59;;;;;;;6.70;4.27;;;1.40;97.50;;;;;;5062780;28;20185;-60
2023/11/29 10:23:25;;;;;;;5.47;4.30;;;1.40;98.70;;;;;;5061267;28;20198;-59
2023/11/29 10:25:50;;;;;;;6.50;4.30;;;1.40;98.80;;;;;;5065916;28;20213;-59
2023/11/29 10:28:16;;;;;;;7.80;4.80;;;1.50;98.90;;;;;;5060365;28;20197;-60
2023/11/29 10:30:42;;;;;;;5.17;4.67;;;1.50;97.50;;;;;;5063344;28;20181;-59
2023/11/29 10:33:09;;;;;;;7.03;5.23;;;1.60;96.90;;;;;;5065021;28;20195;-60
2023/11/29 10:35:37;;;;;;;6.00;4.80;;;1.60;97.60;;;;;;5068140;28;20181;-58
2023/11/29 10:38:12;;;;;;;6.83;5.07;;;1.60;97.40;;;;;;5062773;28;20837;-59
2023/11/29 10:40:39;;;;;;;7.27;4.60;;;1.60;95.70;;;;;;5063869;28;20473;-59
2023/11/29 10:43:07;;;;;;;5.20;4.60;;;1.60;96.10;;;;;;5063757;28;21019;-59
2023/11/29 10:45:39;;;;;;;8.87;4.57;;;1.70;94.60;;;;;;5060631;28;20438;-59
2023/11/29 10:48:11;;;;;;;5.53;4.47;;;1.60;94.30;;;;;;5066205;28;20423;-59
2023/11/29 10:50:38;;;;;;;6.00;4.50;;;1.70;95.10;;;;;;5062402;28;20960;-58
2023/11/29 10:53:04;;;;;;;8.43;5.20;;;1.70;91.70;;;;;;5065129;28;20436;-60
2023/11/29 10:55:35;;;;;;;5.20;4.07;;;1.70;92.60;;;;;;5063741;28;20431;-60
2023/11/29 10:58:32;;;;;;;6.27;4.83;;;1.80;91.20;;;;;;5067285;28;20230;-59
2023/11/29 11:00:58;;;;;;;5.83;4.80;;;1.90;94.30;;;;;;5063502;28;20438;-59
2023/11/29 11:03:46;;;;;;;6.17;4.30;;;2.00;89.30;;;;;;5063164;28;20438;-60
2023/11/29 11:06:24;;;;;;;5.40;4.40;;;2.00;90.90;;;;;;5060982;28;20185;-60
2023/11/29 11:08:53;;;;;;;4.63;3.93;;;2.20;91.40;;;;;;5057244;28;20868;-61
2023/11/29 11:11:45;;;;;;;5.10;4.30;;;2.30;89.70;;;;;;5057305;28;20458;-60
2023/11/29 11:14:27;;;;;;;6.20;4.70;;;2.40;87.50;;;;;;5065271;28;20428;-61
2023/11/29 11:17:03;;;;;;;8.33;4.53;;;2.40;88.40;;;;;;5064238;28;20970;-61
2023/11/29 11:19:41;;;;;;;5.73;3.83;;;2.50;90.40;;;;;;5065157;28;20431;-60
2023/11/29 11:22:14;;;;;;;5.70;4.20;;;2.70;90.50;;;;;;5063959;28;20448;-61
2023/11/29 11:25:11;;;;;;;5.37;3.87;;;2.80;86.70;;;;;;5065359;28;20412;-62
2023/11/29 11:27:39;;;;;;;3.93;3.57;;;2.90;75.60;;;;;;5054417;28;20435;-61
2023/11/29 11:30:14;;;;;;;10.23;3.90;;;2.90;79.20;;;;;;5063425;28;20905;-61
2023/11/29 11:32:40;;;;;;;4.83;3.80;;;2.90;74.60;;;;;;5059354;28;20445;-61
2023/11/29 11:35:21;;;;;;;4.40;3.70;;;2.90;74.50;;;;;;5060201;28;20814;-60
2023/11/29 11:37:48;;;;;;;8.43;4.10;;;2.90;73.90;;;;;;5067914;28;20448;-61
2023/11/29 11:40:16;;;;;;;5.77;3.67;;;2.80;75.20;;;;;;5065346;28;20946;-61
2023/11/29 11:42:42;;;;;;;3.90;3.50;;;2.80;77.60;;;;;;5061318;28;20476;-60
2023/11/29 11:45:09;;;;;;;4.77;3.97;;;2.80;77.40;;;;;;5065925;28;20432;-60
2023/11/29 11:47:38;;;;;;;4.63;4.00;;;2.80;76.20;;;;;;5063925;28;20429;-60
2023/11/29 11:50:04;;;;;;;4.63;3.63;;;2.70;74.80;;;;;;5062557;28;20464;-58
2023/11/29 11:52:31;;;;;;;4.47;3.67;;;2.60;75.50;;;;;;5065462;28;20463;-61
2023/11/29 11:55:06;;;;;;;5.23;3.50;;;2.60;78.00;;;;;;5065832;28;20411;-59
2023/11/29 11:57:33;;;;;;;3.83;3.40;;;2.50;80.50;;;;;;5064418;28;20471;-59
2023/11/29 11:59:59;;;;;;;4.60;3.53;;;2.40;82.70;;;;;;5062601;28;20427;-60
2023/11/29 12:02:26;;;;;;;5.30;3.97;;;2.40;86.70;;;;;;5060022;28;20490;-60
2023/11/29 12:04:53;;;;;;;6.10;3.47;;;2.40;88.10;;;;;;5063659;28;20771;-60
2023/11/29 12:07:20;;;;;;;5.50;4.30;;;2.40;90.00;;;;;;5058653;28;20429;-59
2023/11/29 12:09:46;;;;;;;4.53;3.87;;;2.40;90.10;;;;;;5066131;28;20472;-60
2023/11/29 12:12:14;;;;;;;4.80;3.20;;;2.40;88.50;;;;;;5059046;28;21057;-58
2023/11/29 12:14:44;;;;;;;9.37;3.67;;;2.40;90.50;;;;;;5061087;28;20431;-61
2023/11/29 12:17:11;;;;;;;4.80;3.60;;;2.40;90.40;;;;;;5063281;28;20797;-60
2023/11/29 12:19:41;;;;;;;5.80;3.63;;;2.40;90.80;;;;;;5063662;28;21029;-59
2023/11/29 12:22:07;;;;;;;5.57;3.40;;;2.40;91.30;;;;;;5062682;28;20540;-60
2023/11/29 12:24:42;;;;;;;4.77;3.20;;;2.50;91.50;;;;;;5057869;28;20565;-59
2023/11/29 12:27:09;;;;;;;5.40;3.30;;;2.50;90.70;;;;;;5057098;28;20432;-60
2023/11/29 12:29:42;;;;;;;5.57;3.30;;;2.50;90.00;;;;;;5060269;28;20495;-60
2023/11/29 12:32:08;;;;;;;3.90;2.93;;;2.50;86.60;;;;;;5064514;28;20463;-60
2023/11/29 12:34:34;;;;;;;5.13;3.20;;;2.50;87.90;;;;;;5060256;28;20440;-59
2023/11/29 12:37:03;;;;;;;5.17;3.10;;;2.40;87.90;;;;;;5059147;28;21095;-60
2023/11/29 12:39:28;;;;;;;3.33;3.00;;;2.50;90.00;;;;;;5057937;28;20512;-61
2023/11/29 12:41:55;;;;;;;6.70;3.57;;;2.50;89.40;;;;;;5059667;28;20474;-60
2023/11/29 12:44:20;;;;;;;9.50;3.40;;;2.50;89.20;;;;;;5059498;28;20610;-59